Aeroboteco Virtual Airlines! Uma nuvem a frente.



 INFORMAÇÕES METEOROLÓGICAS
METAR FOR KEEO
ADDS - METARS form results

(0110 UTC 20 March 2019)
Data provider http://aviationweather.gov/metar/data/
 
METAR text: KEEO 200053Z AUTO 02007KT 10SM CLR 02/M07 A3027 RMK AO2 SLP276 T00221072
Conditions at: KEEO (MEEKER , CO, US) observed 0053 UTC 20 March 2019
Temperature: 2.2°C (36°F)
Dewpoint: -7.2°C (19°F) [RH = 50%]
Pressure (altimeter): 30.27 inches Hg (1025.1 mb)
[Sea-level pressure: 1027.6 mb]
Winds: from the NNE (20 degrees) at 8 MPH (7 knots; 3.6 m/s)
Visibility: 10 or more miles (16+ km)
Ceiling: at least 12,000 feet AGL
Clouds: sky clear below 12,000 feet AGL
Weather: automated observation with no human augmentation;
there may or may not be significant weather present at this time

 MAPA DO AEROPORTO

 INFORMAÇÕES DA PISTA
Pista 03 Tamanho da pista 6500 ft Largura da pista 60 ft
Elevação da pista 6348 ft Ranhura da pista 0 ft Proa da pista 40
Pista 21 Tamanho da pista 6500 ft Largura da pista 60 ft
Elevação da pista 6421 ft Ranhura da pista 500 ft Proa da pista 220

 FREQUÊNCIAS DO AEROPORTO
Tipo ASOS Nome ASOS Frequência 135.525 MHZ
Tipo CNTR Nome DENVER CNT Frequência 134.5 MHZ
Tipo RDO Nome DENVER RDO Frequência 122.15 MHZ
Tipo UNIC Nome CTAF/UNICO Frequência 122.8 MHZ

 AUXÍLIOS DE NAVEGAÇÃO PRÓXIMOS AO AEROPORTO